Time;durP1;ratioP1;P1;durP2;ratioP2;P2;SDS_P1;SDS_P2;PMS_P1;PMS_P2;Temp;Humidity;BMP_temperature;BMP_pressure;BME280_temperature;BME280_humidity;BME280_pressure;Samples;Min_cycle;Max_cycle;Signal;HPM_P1;HPM_P2
2023/08/31 00:00:37;;;;;;;25.42;16.95;;;12.20;99.90;;;;;;5079177;28;20218;-81
2023/08/31 00:03:03;;;;;;;39.22;18.80;;;12.20;99.90;;;;;;5079790;28;20190;-81
2023/08/31 00:05:30;;;;;;;31.13;18.90;;;12.10;99.90;;;;;;5079399;28;20212;-82
2023/08/31 00:07:56;;;;;;;33.38;19.33;;;12.00;99.90;;;;;;5079483;28;20178;-81
2023/08/31 00:10:23;;;;;;;30.30;18.60;;;12.00;99.90;;;;;;5079027;28;20227;-82
2023/08/31 00:12:49;;;;;;;33.90;19.25;;;11.90;99.90;;;;;;5078718;28;20202;-82
2023/08/31 00:15:15;;;;;;;37.67;19.90;;;11.90;99.90;;;;;;5079052;28;20177;-81
2023/08/31 00:17:41;;;;;;;35.70;20.40;;;11.80;99.90;;;;;;5079375;28;20200;-81
2023/08/31 00:20:11;;;;;;;34.22;19.35;;;12.00;99.90;;;;;;5065924;28;20191;-82
2023/08/31 00:22:37;;;;;;;36.85;20.40;;;12.00;99.90;;;;;;5059675;28;20195;-82
2023/08/31 00:25:08;;;;;;;30.33;19.38;;;12.00;99.90;;;;;;5060442;28;20563;-81
2023/08/31 00:27:36;;;;;;;28.50;17.85;;;12.00;99.90;;;;;;5060323;28;20155;-82
2023/08/31 00:30:11;;;;;;;31.73;16.52;;;12.00;99.90;;;;;;5059934;28;20198;-81
2023/08/31 00:32:39;;;;;;;37.90;16.35;;;11.80;99.90;;;;;;5058988;28;20198;-82
2023/08/31 00:35:05;;;;;;;28.85;15.88;;;11.80;99.90;;;;;;5058958;28;20206;-82
2023/08/31 00:37:31;;;;;;;25.42;16.17;;;11.80;99.90;;;;;;5059427;28;20232;-82
2023/08/31 00:39:57;;;;;;;27.75;15.32;;;11.80;99.90;;;;;;5058946;28;20178;-82
2023/08/31 00:42:24;;;;;;;29.90;16.92;;;11.80;99.90;;;;;;5058910;28;20217;-82
2023/08/31 00:44:50;;;;;;;25.30;15.02;;;11.80;99.90;;;;;;5058997;28;20206;-82
2023/08/31 00:47:16;;;;;;;37.00;15.90;;;11.80;99.90;;;;;;5059578;28;20174;-82
2023/08/31 00:49:42;;;;;;;28.55;15.40;;;11.70;99.90;;;;;;5068587;28;20223;-82
2023/08/31 00:52:08;;;;;;;25.88;14.50;;;11.70;99.90;;;;;;5083971;28;20650;-82
2023/08/31 00:54:37;;;;;;;30.77;15.55;;;11.70;99.90;;;;;;5084338;28;20314;-81
2023/08/31 00:57:03;;;;;;;25.73;15.05;;;11.70;99.90;;;;;;5086368;28;20199;-81
2023/08/31 00:59:30;;;;;;;29.80;15.52;;;11.70;99.90;;;;;;5085077;28;20205;-81
2023/08/31 01:02:20;;;;;;;24.92;14.57;;;11.60;99.90;;;;;;5085580;28;20273;-82
2023/08/31 01:04:55;;;;;;;21.08;14.50;;;11.60;99.90;;;;;;5085225;28;20200;-81
2023/08/31 01:07:32;;;;;;;26.27;15.27;;;11.60;99.90;;;;;;5084459;28;20177;-81
2023/08/31 01:10:11;;;;;;;24.85;14.93;;;11.70;99.90;;;;;;5083328;28;20252;-81
2023/08/31 01:12:41;;;;;;;25.40;15.02;;;11.80;99.90;;;;;;5083713;28;20197;-81
2023/08/31 01:15:12;;;;;;;24.15;14.30;;;11.80;99.90;;;;;;5082700;28;20162;-81
2023/08/31 01:17:42;;;;;;;22.80;14.48;;;11.80;99.90;;;;;;5083922;28;20169;-81
2023/08/31 01:20:11;;;;;;;21.13;12.52;;;11.70;99.90;;;;;;5083709;28;20186;-82
2023/08/31 01:23:00;;;;;;;21.65;12.63;;;11.60;99.90;;;;;;5083628;28;20201;-81
2023/08/31 01:25:27;;;;;;;27.27;12.55;;;11.50;99.90;;;;;;5078126;28;20228;-81
2023/08/31 01:27:53;;;;;;;23.65;13.00;;;11.50;99.90;;;;;;5083526;28;20595;-81
2023/08/31 01:30:19;;;;;;;19.63;12.23;;;11.50;99.90;;;;;;5083272;28;20699;-81
2023/08/31 01:32:45;;;;;;;20.23;12.18;;;11.40;99.90;;;;;;5082269;28;20190;-80
2023/08/31 01:35:13;;;;;;;20.88;11.98;;;11.40;99.90;;;;;;5084989;28;20285;-82
2023/08/31 01:37:45;;;;;;;22.70;11.45;;;11.40;99.90;;;;;;5085491;28;20508;-81
2023/08/31 01:40:32;;;;;;;18.27;11.40;;;11.40;99.90;;;;;;5084909;28;20181;-81
2023/08/31 01:43:00;;;;;;;19.42;13.38;;;11.40;99.90;;;;;;5084665;28;20269;-81
2023/08/31 01:45:26;;;;;;;19.27;12.02;;;11.40;99.90;;;;;;5092011;28;20207;-80
2023/08/31 01:47:52;;;;;;;20.80;12.13;;;11.40;99.90;;;;;;5098620;28;20634;-80
2023/08/31 01:50:18;;;;;;;19.50;11.05;;;11.40;99.90;;;;;;5087852;28;20277;-81
2023/08/31 01:52:44;;;;;;;23.83;11.13;;;11.30;99.90;;;;;;5081476;28;20618;-81
2023/08/31 01:55:10;;;;;;;17.13;10.77;;;11.40;99.90;;;;;;5082945;28;20231;-81
2023/08/31 01:57:36;;;;;;;17.35;10.68;;;11.40;99.90;;;;;;5081666;28;20186;-81
2023/08/31 02:00:04;;;;;;;16.73;9.70;;;11.40;99.90;;;;;;5081237;28;20182;-81
2023/08/31 02:02:29;;;;;;;17.77;9.88;;;11.40;99.90;;;;;;5081478;28;20213;-80
2023/08/31 02:04:55;;;;;;;24.02;11.63;;;11.40;99.90;;;;;;5083662;28;20220;-81
2023/08/31 02:07:21;;;;;;;15.13;9.80;;;11.30;99.90;;;;;;5082533;28;20174;-80
2023/08/31 02:09:47;;;;;;;20.45;10.15;;;11.30;99.90;;;;;;5083375;28;20166;-81
2023/08/31 02:12:12;;;;;;;19.38;9.60;;;11.30;99.90;;;;;;5082593;28;20265;-81
2023/08/31 02:14:38;;;;;;;19.10;10.45;;;11.40;99.90;;;;;;5081718;28;20638;-80
2023/08/31 02:17:04;;;;;;;17.35;9.55;;;11.30;99.90;;;;;;5082383;28;20287;-80
2023/08/31 02:19:30;;;;;;;17.92;10.90;;;11.30;99.90;;;;;;5075219;28;20186;-80
2023/08/31 02:21:55;;;;;;;18.67;10.45;;;11.20;99.90;;;;;;5062813;28;20190;-81
2023/08/31 02:24:21;;;;;;;15.30;9.48;;;11.20;99.90;;;;;;5061294;28;20621;-81
2023/08/31 02:26:49;;;;;;;21.45;10.27;;;11.20;99.90;;;;;;5061620;28;20192;-81
2023/08/31 02:29:14;;;;;;;16.02;10.00;;;11.20;99.90;;;;;;5061962;28;20174;-80
2023/08/31 02:31:41;;;;;;;18.60;10.00;;;11.10;99.90;;;;;;5062539;28;20170;-82
2023/08/31 02:34:07;;;;;;;16.40;10.13;;;11.10;99.90;;;;;;5061621;28;20227;-80
2023/08/31 02:36:33;;;;;;;17.73;9.70;;;11.10;99.90;;;;;;5061199;28;20217;-80
2023/08/31 02:38:59;;;;;;;17.63;9.63;;;11.10;99.90;;;;;;5061633;28;20178;-80
2023/08/31 02:41:24;;;;;;;25.73;11.10;;;11.10;99.90;;;;;;5063171;28;20178;-80
2023/08/31 02:43:51;;;;;;;21.65;10.65;;;11.00;99.90;;;;;;5061516;28;20194;-81
2023/08/31 02:46:17;;;;;;;14.48;9.82;;;11.10;99.90;;;;;;5057192;28;20182;-79
2023/08/31 02:48:44;;;;;;;18.13;11.45;;;11.10;99.90;;;;;;5056111;28;20232;-80
2023/08/31 02:51:10;;;;;;;18.23;10.68;;;11.10;99.90;;;;;;5056366;28;20214;-80
2023/08/31 02:53:36;;;;;;;19.00;9.95;;;11.00;99.90;;;;;;5058080;28;20198;-80
2023/08/31 02:56:02;;;;;;;16.83;10.65;;;11.00;99.90;;;;;;5059336;28;20163;-80
2023/08/31 02:58:28;;;;;;;18.88;11.20;;;11.00;99.90;;;;;;5060158;28;20186;-80
2023/08/31 03:00:54;;;;;;;26.88;10.77;;;10.90;99.90;;;;;;5059677;28;20186;-80
2023/08/31 03:03:20;;;;;;;20.77;12.45;;;10.90;99.90;;;;;;5060886;28;20205;-80
2023/08/31 03:05:45;;;;;;;16.63;10.80;;;10.80;99.90;;;;;;5060351;28;20238;-81
2023/08/31 03:08:11;;;;;;;19.15;11.10;;;10.80;99.90;;;;;;5060420;28;20182;-80
2023/08/31 03:10:38;;;;;;;16.83;11.05;;;10.80;99.90;;;;;;5058225;28;20232;-79
2023/08/31 03:13:04;;;;;;;24.23;12.25;;;10.80;99.90;;;;;;5058709;28;20228;-79
2023/08/31 03:15:34;;;;;;;22.83;12.43;;;10.80;99.90;;;;;;5058208;28;20313;-79
2023/08/31 03:18:00;;;;;;;15.45;11.88;;;10.80;99.90;;;;;;5058611;28;20178;-79
2023/08/31 03:20:25;;;;;;;19.95;12.60;;;10.80;99.90;;;;;;5059384;28;20183;-79
2023/08/31 03:22:51;;;;;;;21.48;12.18;;;10.80;99.90;;;;;;5058713;28;20202;-80
2023/08/31 03:25:17;;;;;;;22.60;12.27;;;10.70;99.90;;;;;;5057043;28;20630;-80
2023/08/31 03:27:43;;;;;;;21.47;13.13;;;10.80;99.90;;;;;;5056602;28;20224;-80
2023/08/31 03:30:09;;;;;;;23.33;12.48;;;10.80;99.90;;;;;;5057729;28;20178;-80
2023/08/31 03:32:35;;;;;;;25.53;13.63;;;10.70;99.90;;;;;;5057661;28;20305;-80
2023/08/31 03:35:03;;;;;;;27.33;14.00;;;10.70;99.90;;;;;;5058064;28;20206;-80
2023/08/31 03:37:29;;;;;;;22.73;14.07;;;10.70;99.90;;;;;;5059354;28;20175;-80
2023/08/31 03:39:55;;;;;;;24.73;14.00;;;10.70;99.90;;;;;;5059010;28;20337;-80
2023/08/31 03:42:21;;;;;;;21.57;14.80;;;10.70;99.90;;;;;;5058880;28;20186;-80
2023/08/31 03:44:47;;;;;;;23.40;13.90;;;10.70;99.90;;;;;;5058067;28;20206;-80
2023/08/31 03:47:12;;;;;;;28.23;15.20;;;10.70;99.90;;;;;;5058662;28;20179;-80
2023/08/31 03:49:38;;;;;;;18.67;14.07;;;10.70;99.90;;;;;;5065492;28;20186;-80
2023/08/31 03:52:04;;;;;;;19.30;14.47;;;10.70;99.90;;;;;;5075603;28;20197;-81
2023/08/31 03:54:30;;;;;;;20.98;14.23;;;10.70;99.90;;;;;;5077216;28;20177;-80
2023/08/31 03:56:56;;;;;;;20.50;13.00;;;10.60;99.90;;;;;;5075725;28;20189;-80
2023/08/31 03:59:21;;;;;;;17.27;13.27;;;10.60;99.90;;;;;;5077693;28;20649;-80
2023/08/31 04:01:47;;;;;;;21.30;13.43;;;10.60;99.90;;;;;;5079073;28;20174;-81
2023/08/31 04:04:13;;;;;;;19.57;13.47;;;10.70;99.90;;;;;;5076449;28;20235;-80
2023/08/31 04:06:39;;;;;;;21.80;13.87;;;10.60;99.90;;;;;;5076134;28;20184;-80
2023/08/31 04:09:04;;;;;;;21.93;14.00;;;10.60;99.90;;;;;;5076427;28;20178;-80
2023/08/31 04:11:30;;;;;;;25.63;14.93;;;10.60;99.90;;;;;;5075611;28;20181;-81
2023/08/31 04:13:56;;;;;;;19.27;14.20;;;10.70;99.90;;;;;;5075667;28;20227;-80
2023/08/31 04:16:22;;;;;;;21.70;14.63;;;10.60;99.90;;;;;;5075940;28;20177;-80
2023/08/31 04:18:51;;;;;;;21.85;14.50;;;10.60;99.90;;;;;;5075599;28;20181;-80
2023/08/31 04:21:18;;;;;;;22.70;15.20;;;10.60;99.90;;;;;;5076947;28;20295;-80
2023/08/31 04:23:44;;;;;;;20.77;14.73;;;10.70;99.90;;;;;;5077441;28;20197;-80
2023/08/31 04:26:14;;;;;;;19.17;15.23;;;10.70;99.90;;;;;;5074854;28;20210;-80
2023/08/31 04:28:43;;;;;;;22.83;16.27;;;10.80;99.90;;;;;;5076206;28;20525;-80
2023/08/31 04:31:09;;;;;;;22.30;15.90;;;10.80;99.90;;;;;;5076351;28;20178;-80
2023/08/31 04:33:36;;;;;;;23.00;16.98;;;10.80;99.90;;;;;;5076491;28;20232;-80
2023/08/31 04:36:03;;;;;;;20.67;15.88;;;10.80;99.90;;;;;;5076875;28;20224;-80
2023/08/31 04:38:29;;;;;;;21.30;16.70;;;10.80;99.90;;;;;;5077533;28;20252;-81
2023/08/31 04:40:58;;;;;;;22.50;18.20;;;10.90;99.90;;;;;;5078715;28;20257;-80
2023/08/31 04:43:24;;;;;;;29.23;17.65;;;10.90;99.90;;;;;;5074149;28;20694;-80
2023/08/31 04:45:52;;;;;;;31.00;17.65;;;10.90;99.90;;;;;;5073650;28;20197;-79
2023/08/31 04:48:17;;;;;;;25.65;19.17;;;10.90;99.90;;;;;;5075067;28;20206;-80
2023/08/31 04:50:44;;;;;;;28.73;18.85;;;10.90;99.90;;;;;;5056259;28;20244;-80
2023/08/31 04:53:10;;;;;;;24.93;19.67;;;10.90;99.90;;;;;;5053428;28;20195;-80
2023/08/31 04:55:37;;;;;;;30.57;19.87;;;10.90;99.90;;;;;;5056023;28;20240;-80
2023/08/31 04:58:03;;;;;;;28.27;20.90;;;11.00;99.90;;;;;;5060259;28;20186;-80
2023/08/31 05:00:29;;;;;;;28.70;20.07;;;11.00;99.90;;;;;;5061354;28;20178;-79
2023/08/31 05:02:56;;;;;;;29.75;19.58;;;11.00;99.90;;;;;;5061171;28;20202;-80
2023/08/31 05:05:21;;;;;;;29.75;20.10;;;11.00;99.90;;;;;;5059948;28;20217;-80
2023/08/31 05:07:47;;;;;;;24.00;18.85;;;11.00;99.90;;;;;;5060002;28;20182;-80
2023/08/31 05:10:13;;;;;;;28.03;19.90;;;11.00;99.90;;;;;;5060581;28;20185;-80
2023/08/31 05:12:39;;;;;;;27.42;19.55;;;11.00;99.90;;;;;;5059649;28;20205;-81
2023/08/31 05:15:05;;;;;;;28.23;20.25;;;11.00;99.90;;;;;;5060532;28;20183;-81
2023/08/31 05:17:31;;;;;;;29.02;18.48;;;11.00;99.90;;;;;;5059726;28;20255;-81
2023/08/31 05:19:57;;;;;;;25.73;19.30;;;11.00;99.90;;;;;;5071048;28;20276;-81
2023/08/31 05:22:23;;;;;;;26.73;19.52;;;11.00;99.90;;;;;;5079284;28;20684;-79
2023/08/31 05:24:49;;;;;;;27.90;20.30;;;11.10;99.90;;;;;;5079484;28;20198;-80
2023/08/31 05:27:15;;;;;;;23.95;19.60;;;11.10;99.90;;;;;;5079088;28;20642;-80
2023/08/31 05:29:40;;;;;;;24.65;18.27;;;11.10;99.90;;;;;;5079392;28;20182;-80
2023/08/31 05:32:06;;;;;;;30.75;19.35;;;11.10;99.90;;;;;;5079471;28;20197;-80
2023/08/31 05:34:37;;;;;;;26.50;19.92;;;11.20;99.90;;;;;;5080485;28;20188;-81
2023/08/31 05:37:04;;;;;;;29.80;20.70;;;11.10;99.90;;;;;;5082268;28;20162;-79
2023/08/31 05:39:30;;;;;;;28.25;19.70;;;11.10;99.90;;;;;;5083009;28;20239;-80
2023/08/31 05:41:56;;;;;;;31.05;20.42;;;11.10;99.90;;;;;;5084465;28;20197;-80
2023/08/31 05:44:22;;;;;;;26.58;20.20;;;11.20;99.90;;;;;;5086116;28;20208;-80
2023/08/31 05:46:48;;;;;;;25.60;19.33;;;11.20;99.90;;;;;;5083102;28;20177;-81
2023/08/31 05:49:14;;;;;;;29.27;21.17;;;11.20;99.90;;;;;;5082125;28;20185;-79
2023/08/31 05:51:39;;;;;;;25.60;20.67;;;11.30;99.90;;;;;;5079228;28;20264;-78
2023/08/31 05:54:10;;;;;;;27.40;20.07;;;11.30;99.90;;;;;;5079799;28;20178;-79
2023/08/31 05:56:36;;;;;;;28.23;21.65;;;11.40;99.90;;;;;;5079513;28;20170;-79
2023/08/31 05:59:02;;;;;;;28.42;21.73;;;11.40;99.90;;;;;;5079078;28;20192;-79
2023/08/31 06:01:28;;;;;;;29.53;23.13;;;11.40;99.90;;;;;;5078993;28;20580;-78
2023/08/31 06:03:53;;;;;;;29.95;22.00;;;11.50;99.90;;;;;;5078862;28;20226;-79
2023/08/31 06:06:19;;;;;;;30.03;21.37;;;11.60;99.90;;;;;;5080974;28;20231;-79
2023/08/31 06:08:45;;;;;;;28.52;22.63;;;11.60;99.90;;;;;;5080146;28;20552;-79
2023/08/31 06:11:10;;;;;;;29.23;21.77;;;11.60;99.90;;;;;;5079386;28;20181;-79
2023/08/31 06:13:37;;;;;;;29.33;22.60;;;11.70;99.90;;;;;;5079310;28;20580;-78
2023/08/31 06:16:05;;;;;;;30.20;22.57;;;11.70;99.90;;;;;;5078726;28;20200;-79
2023/08/31 06:18:32;;;;;;;41.33;22.33;;;11.80;99.90;;;;;;5078678;28;20564;-79
2023/08/31 06:20:57;;;;;;;33.42;22.50;;;11.90;99.90;;;;;;5075966;28;20186;-78
2023/08/31 06:23:23;;;;;;;30.10;22.63;;;12.00;99.90;;;;;;5078031;28;20198;-78
2023/08/31 06:25:49;;;;;;;27.63;21.33;;;12.00;99.90;;;;;;5078121;28;20244;-79
2023/08/31 06:28:15;;;;;;;28.83;21.42;;;12.00;99.90;;;;;;5075503;28;20209;-78
2023/08/31 06:30:46;;;;;;;26.08;20.17;;;12.20;99.90;;;;;;5077388;28;20205;-78
2023/08/31 06:33:15;;;;;;;33.53;21.35;;;12.20;99.90;;;;;;5077676;28;20193;-78
2023/08/31 06:35:41;;;;;;;28.55;20.48;;;12.30;99.90;;;;;;5078555;28;20174;-78
2023/08/31 06:38:07;;;;;;;29.73;19.45;;;12.30;99.90;;;;;;5076918;28;20626;-78
2023/08/31 06:40:33;;;;;;;26.20;20.30;;;12.50;99.90;;;;;;5077022;28;20598;-79
2023/08/31 06:42:59;;;;;;;26.52;19.70;;;12.50;99.90;;;;;;5076961;28;20254;-78
2023/08/31 06:45:25;;;;;;;30.73;21.40;;;12.60;99.90;;;;;;5076845;28;20573;-79
2023/08/31 06:47:51;;;;;;;26.50;21.15;;;12.70;99.90;;;;;;5076809;28;20638;-79
2023/08/31 06:50:17;;;;;;;27.10;20.75;;;12.80;99.90;;;;;;5076111;28;20184;-78
2023/08/31 06:52:43;;;;;;;26.13;19.95;;;12.80;99.90;;;;;;5078143;28;20627;-79
2023/08/31 06:55:10;;;;;;;22.73;18.90;;;12.90;99.90;;;;;;5076887;28;20182;-79
2023/08/31 06:57:37;;;;;;;21.63;17.75;;;12.90;99.90;;;;;;5076325;28;20170;-78
2023/08/31 07:00:03;;;;;;;23.63;18.13;;;12.90;99.90;;;;;;5075929;28;20204;-79
2023/08/31 07:02:29;;;;;;;21.90;18.27;;;13.00;99.90;;;;;;5076493;28;20248;-78
2023/08/31 07:04:55;;;;;;;24.08;16.77;;;13.00;99.90;;;;;;5076036;28;20213;-79
2023/08/31 07:07:21;;;;;;;19.65;15.77;;;13.00;99.90;;;;;;5077070;28;20177;-78
2023/08/31 07:09:48;;;;;;;17.83;15.93;;;13.20;99.90;;;;;;5077520;28;20170;-78
2023/08/31 07:12:14;;;;;;;22.10;15.98;;;13.30;99.90;;;;;;5076970;28;20691;-79
2023/08/31 07:14:40;;;;;;;20.63;14.55;;;13.40;99.90;;;;;;5075421;28;20599;-78
2023/08/31 07:17:06;;;;;;;18.60;13.82;;;13.50;99.90;;;;;;5075478;28;20177;-79
2023/08/31 07:19:35;;;;;;;16.27;12.68;;;13.50;99.90;;;;;;5073557;28;20198;-78
2023/08/31 07:22:01;;;;;;;13.48;10.77;;;13.60;99.90;;;;;;5073221;28;20284;-78
2023/08/31 07:24:26;;;;;;;13.55;12.10;;;13.60;99.90;;;;;;5073220;28;20313;-78
2023/08/31 07:26:52;;;;;;;16.20;10.07;;;13.70;99.90;;;;;;5073346;28;20193;-78
2023/08/31 07:29:18;;;;;;;11.80;9.52;;;13.80;99.90;;;;;;5073533;28;20170;-78
2023/08/31 07:31:43;;;;;;;10.35;8.60;;;13.80;99.90;;;;;;5073710;28;20185;-78
2023/08/31 07:34:09;;;;;;;12.55;9.63;;;13.80;99.90;;;;;;5074895;28;20174;-78
2023/08/31 07:36:35;;;;;;;17.83;9.73;;;13.90;99.90;;;;;;5074874;28;20177;-77
2023/08/31 07:39:01;;;;;;;11.82;9.13;;;14.00;99.90;;;;;;5075130;28;20526;-78
2023/08/31 07:41:26;;;;;;;9.68;7.97;;;14.10;99.90;;;;;;5073838;28;20189;-78
2023/08/31 07:43:52;;;;;;;15.05;8.52;;;14.10;99.90;;;;;;5073532;28;20260;-78
2023/08/31 07:46:18;;;;;;;10.65;8.23;;;14.10;99.90;;;;;;5072751;28;20198;-78
2023/08/31 07:48:44;;;;;;;10.10;7.07;;;14.20;99.90;;;;;;5072823;28;20173;-77
2023/08/31 07:51:10;;;;;;;10.55;7.28;;;14.20;99.90;;;;;;5072562;28;20178;-78
2023/08/31 07:53:35;;;;;;;9.43;6.63;;;14.30;99.90;;;;;;5072943;28;20654;-78
2023/08/31 07:56:01;;;;;;;8.23;7.32;;;14.40;99.90;;;;;;5072759;28;20182;-78
2023/08/31 07:58:27;;;;;;;8.23;6.85;;;14.60;99.90;;;;;;5072884;28;20185;-77
2023/08/31 08:00:54;;;;;;;13.70;7.35;;;14.60;99.90;;;;;;5072769;28;20174;-78
2023/08/31 08:03:21;;;;;;;9.40;5.90;;;14.70;99.90;;;;;;5072760;28;20572;-78
2023/08/31 08:05:47;;;;;;;8.27;5.93;;;14.80;99.90;;;;;;5072733;28;20205;-78
2023/08/31 08:08:13;;;;;;;10.32;5.53;;;14.90;99.90;;;;;;5073138;28;20177;-79
2023/08/31 08:10:38;;;;;;;9.70;6.43;;;14.90;99.90;;;;;;5074322;28;20169;-78
2023/08/31 08:13:04;;;;;;;6.82;5.18;;;14.90;99.90;;;;;;5072896;28;20220;-78
2023/08/31 08:15:31;;;;;;;7.82;4.75;;;15.10;99.90;;;;;;5072911;28;20323;-78
2023/08/31 08:17:57;;;;;;;7.18;4.60;;;15.10;99.90;;;;;;5072822;28;20231;-78
2023/08/31 08:20:23;;;;;;;7.97;4.97;;;15.20;99.90;;;;;;5074239;28;20685;-78
2023/08/31 08:22:52;;;;;;;5.50;4.57;;;15.30;99.90;;;;;;5072615;28;20193;-78
2023/08/31 08:25:22;;;;;;;8.40;4.78;;;15.50;99.90;;;;;;5074797;28;20206;-78
2023/08/31 08:27:48;;;;;;;8.43;4.90;;;15.50;99.90;;;;;;5073729;28;20166;-78
2023/08/31 08:30:15;;;;;;;7.97;4.80;;;15.60;99.90;;;;;;5073329;28;20227;-78
2023/08/31 08:32:41;;;;;;;4.30;4.00;;;15.80;99.90;;;;;;5073018;28;20794;-78
2023/08/31 08:35:07;;;;;;;6.28;4.25;;;15.80;99.90;;;;;;5073293;28;20173;-78
2023/08/31 08:37:33;;;;;;;5.35;3.67;;;15.90;99.90;;;;;;5074192;28;20609;-77
2023/08/31 08:39:59;;;;;;;6.22;3.80;;;16.10;99.90;;;;;;5074293;28;20630;-78
2023/08/31 08:42:26;;;;;;;7.70;4.13;;;16.20;99.90;;;;;;5074233;28;20193;-78
2023/08/31 08:44:52;;;;;;;7.43;4.32;;;16.20;99.90;;;;;;5073174;28;20255;-77
2023/08/31 08:47:20;;;;;;;4.65;3.67;;;16.40;99.90;;;;;;5079278;28;20634;-77
2023/08/31 08:49:47;;;;;;;7.03;3.70;;;16.40;99.90;;;;;;5073802;28;20189;-77
2023/08/31 08:52:14;;;;;;;5.93;3.63;;;16.30;5.70;;;;;;5073825;28;20681;-77
2023/08/31 08:54:40;;;;;;;5.72;3.08;;;16.40;99.90;;;;;;5073694;28;20171;-78
2023/08/31 08:57:06;;;;;;;6.57;3.22;;;16.60;99.90;;;;;;5072423;28;20188;-77
2023/08/31 08:59:32;;;;;;;7.47;3.17;;;16.50;1.00;;;;;;5072543;28;20246;-77
2023/08/31 09:01:58;;;;;;;5.78;3.53;;;16.50;66.00;;;;;;5072259;28;20213;-77
2023/08/31 09:04:23;;;;;;;5.05;3.00;;;16.60;1.00;;;;;;5073387;28;20174;-77
2023/08/31 09:06:52;;;;;;;5.13;3.08;;;16.80;1.00;;;;;;5073463;28;20176;-78
2023/08/31 09:09:18;;;;;;;7.85;3.17;;;17.00;1.00;;;;;;5073588;28;20576;-77
2023/08/31 09:11:45;;;;;;;5.10;3.00;;;17.10;1.00;;;;;;5072413;28;20174;-78
2023/08/31 09:14:19;;;;;;;5.95;2.95;;;17.30;1.00;;;;;;5076087;28;20243;-77
2023/08/31 09:16:51;;;;;;;3.65;2.83;;;17.30;3.40;;;;;;5076126;28;20178;-77
2023/08/31 09:19:27;;;;;;;5.82;3.80;;;17.20;1.00;;;;;;5075704;28;20288;-77
2023/08/31 09:21:56;;;;;;;4.72;3.08;;;17.30;1.00;;;;;;5069075;28;20208;-77
2023/08/31 09:24:25;;;;;;;5.05;3.20;;;17.50;1.00;;;;;;5057189;28;20701;-77
2023/08/31 09:26:57;;;;;;;3.60;3.00;;;17.40;1.00;;;;;;5055494;28;20195;-77
2023/08/31 09:29:23;;;;;;;7.47;3.38;;;17.40;99.90;;;;;;5055528;28;20186;-77
2023/08/31 09:31:49;;;;;;;7.68;3.53;;;17.30;99.90;;;;;;5055350;28;20206;-77
2023/08/31 09:34:15;;;;;;;5.50;2.88;;;17.10;1.00;;;;;;5055342;28;20182;-77
2023/08/31 09:36:42;;;;;;;6.72;3.30;;;17.10;1.00;;;;;;5056502;28;20197;-78
2023/08/31 09:39:09;;;;;;;4.93;3.50;;;17.20;1.00;;;;;;5056506;28;20171;-77
2023/08/31 09:41:36;;;;;;;7.57;3.38;;;17.10;1.00;;;;;;5055185;28;20618;-77
2023/08/31 09:44:20;;;;;;;6.03;3.30;;;17.00;1.00;;;;;;5055238;28;20261;-77
2023/08/31 09:46:46;;;;;;;6.50;2.80;;;17.30;88.60;;;;;;5071879;28;20643;-77
2023/08/31 09:49:16;;;;;;;6.35;3.38;;;17.50;1.00;;;;;;5056205;28;20186;-77
2023/08/31 09:51:48;;;;;;;5.25;3.55;;;17.60;1.00;;;;;;5054607;28;20236;-77
2023/08/31 09:54:16;;;;;;;5.53;3.17;;;17.70;1.00;;;;;;5055154;28;20201;-77
2023/08/31 09:56:44;;;;;;;4.07;2.70;;;17.70;99.90;;;;;;5055200;28;20179;-77
2023/08/31 09:59:14;;;;;;;10.20;3.45;;;17.60;99.90;;;;;;5055021;28;20647;-77
2023/08/31 10:01:41;;;;;;;6.15;2.80;;;17.40;93.20;;;;;;5054688;28;20224;-77
2023/08/31 10:04:08;;;;;;;7.80;3.45;;;17.30;99.90;;;;;;5055982;28;20177;-77
2023/08/31 10:06:41;;;;;;;7.57;3.55;;;17.30;1.00;;;;;;5054406;28;20256;-77
2023/08/31 10:09:11;;;;;;;4.97;3.08;;;17.30;99.90;;;;;;5071312;28;20646;-77
2023/08/31 10:11:39;;;;;;;3.53;2.70;;;17.50;99.90;;;;;;5054551;28;20166;-77
2023/08/31 10:14:04;;;;;;;4.88;2.75;;;17.60;99.90;;;;;;5054572;28;20181;-78
2023/08/31 10:16:31;;;;;;;4.75;2.55;;;17.50;99.90;;;;;;5054482;28;20584;-77
2023/08/31 10:18:58;;;;;;;5.65;2.72;;;17.60;99.90;;;;;;5054473;28;20190;-78
2023/08/31 10:21:23;;;;;;;4.40;3.03;;;17.70;1.00;;;;;;5054343;28;20184;-77
2023/08/31 10:23:50;;;;;;;6.32;3.03;;;17.80;1.00;;;;;;5054103;28;20194;-77
2023/08/31 10:26:30;;;;;;;4.80;2.97;;;17.60;99.90;;;;;;5054060;28;20690;-77
2023/08/31 10:28:58;;;;;;;5.43;3.10;;;17.50;1.00;;;;;;5054226;28;20205;-78
2023/08/31 10:31:32;;;;;;;3.60;2.70;;;17.50;1.00;;;;;;5055683;28;20178;-78
2023/08/31 10:34:09;;;;;;;4.97;2.67;;;17.50;1.00;;;;;;5054495;28;20177;-78
2023/08/31 10:36:44;;;;;;;4.68;2.85;;;17.40;1.00;;;;;;5054470;28;20224;-78
2023/08/31 10:39:19;;;;;;;3.30;2.97;;;17.40;1.00;;;;;;5055672;28;20630;-77
2023/08/31 10:41:54;;;;;;;5.05;3.15;;;17.60;99.90;;;;;;5054155;28;20181;-78
2023/08/31 10:44:25;;;;;;;6.30;3.03;;;17.80;99.90;;;;;;5070987;28;20178;-74
2023/08/31 10:46:52;;;;;;;3.95;2.72;;;18.10;1.00;;;;;;5054420;28;20254;-75
2023/08/31 10:49:22;;;;;;;7.47;3.00;;;18.40;1.00;;;;;;5056255;28;20177;-78
2023/08/31 10:51:48;;;;;;;5.78;2.60;;;18.50;1.00;;;;;;5053710;28;20277;-77
2023/08/31 10:54:31;;;;;;;5.20;2.60;;;18.60;1.00;;;;;;5055783;28;20198;-80
2023/08/31 10:59:51;;;;;;;5.55;2.90;;;18.60;99.90;;;;;;5055996;28;20266;-78
2023/08/31 11:02:36;;;;;;;3.10;2.70;;;18.50;1.00;;;;;;5054010;28;20222;-79
2023/08/31 11:05:04;;;;;;;2.67;2.47;;;18.40;99.90;;;;;;5070487;28;20248;-78
2023/08/31 11:07:30;;;;;;;5.40;2.80;;;18.60;67.00;;;;;;5070436;28;20654;-78
2023/08/31 11:10:26;;;;;;;4.88;2.47;;;18.90;99.90;;;;;;5054823;28;20670;-79
2023/08/31 11:12:54;;;;;;;9.20;3.20;;;18.80;1.00;;;;;;5054187;28;20617;-78
2023/08/31 11:15:25;;;;;;;6.20;3.10;;;18.50;1.00;;;;;;5055798;28;20604;-78
2023/08/31 11:17:52;;;;;;;4.95;2.90;;;18.30;1.00;;;;;;5056254;28;20562;-78
2023/08/31 11:20:19;;;;;;;3.05;2.63;;;18.40;1.00;;;;;;5053954;28;20189;-78
2023/08/31 11:22:50;;;;;;;8.32;2.80;;;18.80;1.00;;;;;;5070721;28;20208;-78
2023/08/31 11:25:17;;;;;;;6.20;3.30;;;18.60;1.00;;;;;;5053656;28;20574;-78
2023/08/31 11:27:53;;;;;;;4.45;2.95;;;18.60;1.00;;;;;;5054527;28;20242;-79
2023/08/31 11:30:20;;;;;;;7.30;3.33;;;18.50;98.70;;;;;;5054778;28;20177;-79
2023/08/31 11:32:51;;;;;;;7.28;2.70;;;18.60;1.00;;;;;;5054473;28;20194;-79
2023/08/31 11:35:18;;;;;;;5.50;2.75;;;18.70;99.90;;;;;;5054606;28;20228;-80
2023/08/31 11:37:45;;;;;;;5.38;2.35;;;18.90;1.00;;;;;;5053973;28;20178;-79
2023/08/31 11:40:14;;;;;;;4.25;2.80;;;18.90;98.40;;;;;;5054135;28;20178;-79
2023/08/31 11:42:40;;;;;;;3.78;2.70;;;18.70;1.00;;;;;;5053760;28;20205;-78
2023/08/31 11:45:07;;;;;;;4.82;2.53;;;18.80;1.00;;;;;;5053663;28;20206;-78
2023/08/31 11:47:33;;;;;;;6.40;2.63;;;19.00;99.90;;;;;;5053807;28;20274;-78
2023/08/31 11:50:03;;;;;;;3.67;2.92;;;19.40;1.00;;;;;;5055208;28;20171;-78
2023/08/31 11:52:30;;;;;;;5.13;3.08;;;19.50;99.90;;;;;;5053537;28;20212;-78
2023/08/31 11:54:56;;;;;;;6.72;3.10;;;19.70;99.90;;;;;;5053753;28;20201;-79
2023/08/31 11:57:26;;;;;;;4.25;3.33;;;19.70;1.00;;;;;;5054690;28;20201;-78
2023/08/31 11:59:52;;;;;;;6.30;3.33;;;19.50;99.90;;;;;;5055394;28;20174;-79
2023/08/31 12:02:19;;;;;;;8.13;3.08;;;19.50;80.50;;;;;;5054381;28;20241;-79
2023/08/31 12:04:46;;;;;;;3.63;2.60;;;19.60;99.90;;;;;;5053949;28;20212;-78
2023/08/31 12:07:21;;;;;;;3.38;2.20;;;19.50;1.00;;;;;;5055730;28;20161;-78
2023/08/31 12:09:48;;;;;;;5.65;2.75;;;19.30;99.90;;;;;;5055506;28;20146;-78
2023/08/31 12:12:15;;;;;;;4.78;2.65;;;19.40;1.00;;;;;;5055134;28;20210;-78
2023/08/31 12:14:41;;;;;;;5.25;3.03;;;19.50;1.00;;;;;;5053983;28;20181;-79
2023/08/31 12:17:08;;;;;;;6.40;3.00;;;19.30;1.00;;;;;;5054400;28;20178;-79
2023/08/31 12:19:38;;;;;;;6.03;3.67;;;19.50;99.90;;;;;;5054276;28;20593;-79
2023/08/31 12:22:05;;;;;;;8.70;3.20;;;19.40;94.20;;;;;;5053573;28;20221;-78
2023/08/31 12:24:38;;;;;;;6.10;2.83;;;19.30;99.90;;;;;;5054339;28;20181;-78
2023/08/31 12:27:06;;;;;;;8.25;3.17;;;19.00;1.00;;;;;;5055078;28;20560;-79
2023/08/31 12:29:32;;;;;;;5.20;3.13;;;18.80;99.90;;;;;;5054954;28;20236;-78
2023/08/31 12:31:57;;;;;;;6.85;3.42;;;18.50;1.00;;;;;;5055980;28;20186;-79
2023/08/31 12:34:23;;;;;;;3.65;3.22;;;18.30;99.90;;;;;;5054515;28;20229;-78
2023/08/31 12:36:49;;;;;;;6.05;3.58;;;18.20;1.00;;;;;;5053997;28;20178;-79
2023/08/31 12:39:15;;;;;;;4.72;3.50;;;18.20;99.90;;;;;;5054028;28;20177;-79